sensor_id;sensor_type;location;lat;lon;timestamp;P1;durP1;ratioP1;P2;durP2;ratioP2
3081;SDS011;1551;51.046;7.010;2023-04-25T00:00:39;10.23;;;4.60;;
3081;SDS011;1551;51.046;7.010;2023-04-25T00:03:28;9.57;;;5.03;;
3081;SDS011;1551;51.046;7.010;2023-04-25T00:06:17;9.40;;;3.75;;
3081;SDS011;1551;51.046;7.010;2023-04-25T00:09:06;9.80;;;4.93;;
3081;SDS011;1551;51.046;7.010;2023-04-25T00:11:57;10.15;;;4.03;;
3081;SDS011;1551;51.046;7.010;2023-04-25T00:14:46;11.13;;;4.45;;
3081;SDS011;1551;51.046;7.010;2023-04-25T00:17:35;9.02;;;3.88;;
3081;SDS011;1551;51.046;7.010;2023-04-25T00:20:26;7.28;;;4.18;;
3081;SDS011;1551;51.046;7.010;2023-04-25T00:23:15;11.18;;;4.57;;
3081;SDS011;1551;51.046;7.010;2023-04-25T00:26:08;8.63;;;4.72;;
3081;SDS011;1551;51.046;7.010;2023-04-25T00:28:57;8.15;;;4.25;;
3081;SDS011;1551;51.046;7.010;2023-04-25T00:31:46;10.63;;;4.27;;
3081;SDS011;1551;51.046;7.010;2023-04-25T00:34:35;7.50;;;4.13;;
3081;SDS011;1551;51.046;7.010;2023-04-25T00:37:25;11.10;;;5.10;;
3081;SDS011;1551;51.046;7.010;2023-04-25T00:40:13;9.00;;;4.68;;
3081;SDS011;1551;51.046;7.010;2023-04-25T00:43:02;14.40;;;4.10;;
3081;SDS011;1551;51.046;7.010;2023-04-25T00:45:53;13.18;;;4.80;;
3081;SDS011;1551;51.046;7.010;2023-04-25T00:48:42;14.53;;;5.30;;
3081;SDS011;1551;51.046;7.010;2023-04-25T00:51:31;9.23;;;4.53;;
3081;SDS011;1551;51.046;7.010;2023-04-25T00:54:21;10.63;;;4.60;;
3081;SDS011;1551;51.046;7.010;2023-04-25T00:57:11;11.85;;;5.13;;
3081;SDS011;1551;51.046;7.010;2023-04-25T01:00:00;8.48;;;4.25;;
3081;SDS011;1551;51.046;7.010;2023-04-25T01:02:50;10.73;;;5.20;;
3081;SDS011;1551;51.046;7.010;2023-04-25T01:05:40;9.48;;;4.65;;
3081;SDS011;1551;51.046;7.010;2023-04-25T01:08:30;8.10;;;4.30;;
3081;SDS011;1551;51.046;7.010;2023-04-25T01:11:20;10.40;;;5.03;;
3081;SDS011;1551;51.046;7.010;2023-04-25T01:14:09;15.35;;;4.78;;
3081;SDS011;1551;51.046;7.010;2023-04-25T01:16:58;9.18;;;5.10;;
3081;SDS011;1551;51.046;7.010;2023-04-25T01:19:47;11.10;;;4.63;;
3081;SDS011;1551;51.046;7.010;2023-04-25T01:22:37;7.20;;;4.25;;
3081;SDS011;1551;51.046;7.010;2023-04-25T01:25:27;10.98;;;5.20;;
3081;SDS011;1551;51.046;7.010;2023-04-25T01:28:16;11.07;;;4.50;;
3081;SDS011;1551;51.046;7.010;2023-04-25T01:31:06;13.20;;;5.20;;
3081;SDS011;1551;51.046;7.010;2023-04-25T01:33:56;10.95;;;4.85;;
3081;SDS011;1551;51.046;7.010;2023-04-25T01:36:47;10.13;;;4.60;;
3081;SDS011;1551;51.046;7.010;2023-04-25T01:39:38;8.30;;;4.30;;
3081;SDS011;1551;51.046;7.010;2023-04-25T01:42:28;8.93;;;4.78;;
3081;SDS011;1551;51.046;7.010;2023-04-25T01:45:18;11.02;;;4.93;;
3081;SDS011;1551;51.046;7.010;2023-04-25T01:48:11;10.63;;;4.75;;
3081;SDS011;1551;51.046;7.010;2023-04-25T01:51:01;10.25;;;4.15;;
3081;SDS011;1551;51.046;7.010;2023-04-25T01:53:51;8.40;;;3.50;;
3081;SDS011;1551;51.046;7.010;2023-04-25T01:56:41;11.63;;;4.00;;
3081;SDS011;1551;51.046;7.010;2023-04-25T01:59:33;9.43;;;4.30;;
3081;SDS011;1551;51.046;7.010;2023-04-25T02:02:29;7.40;;;4.22;;
3081;SDS011;1551;51.046;7.010;2023-04-25T02:05:18;9.35;;;4.10;;
3081;SDS011;1551;51.046;7.010;2023-04-25T02:08:09;9.75;;;4.15;;
3081;SDS011;1551;51.046;7.010;2023-04-25T02:10:58;14.85;;;4.70;;
3081;SDS011;1551;51.046;7.010;2023-04-25T02:13:53;11.35;;;4.65;;
3081;SDS011;1551;51.046;7.010;2023-04-25T02:17:15;8.63;;;4.30;;
3081;SDS011;1551;51.046;7.010;2023-04-25T02:20:05;10.63;;;4.65;;
3081;SDS011;1551;51.046;7.010;2023-04-25T02:22:54;9.75;;;4.20;;
3081;SDS011;1551;51.046;7.010;2023-04-25T02:25:43;8.98;;;4.22;;
3081;SDS011;1551;51.046;7.010;2023-04-25T02:28:32;11.38;;;4.20;;
3081;SDS011;1551;51.046;7.010;2023-04-25T02:31:21;7.20;;;4.20;;
3081;SDS011;1551;51.046;7.010;2023-04-25T02:34:10;10.20;;;4.45;;
3081;SDS011;1551;51.046;7.010;2023-04-25T02:37:01;10.32;;;4.40;;
3081;SDS011;1551;51.046;7.010;2023-04-25T02:39:50;7.82;;;3.90;;
3081;SDS011;1551;51.046;7.010;2023-04-25T02:42:39;7.80;;;3.92;;
3081;SDS011;1551;51.046;7.010;2023-04-25T02:45:27;7.43;;;3.85;;
3081;SDS011;1551;51.046;7.010;2023-04-25T02:48:16;8.40;;;3.95;;
3081;SDS011;1551;51.046;7.010;2023-04-25T02:51:05;6.75;;;4.07;;
3081;SDS011;1551;51.046;7.010;2023-04-25T02:53:54;8.73;;;3.80;;
3081;SDS011;1551;51.046;7.010;2023-04-25T02:56:43;10.57;;;3.93;;
3081;SDS011;1551;51.046;7.010;2023-04-25T02:59:38;7.00;;;3.88;;
3081;SDS011;1551;51.046;7.010;2023-04-25T03:02:27;8.45;;;4.03;;
3081;SDS011;1551;51.046;7.010;2023-04-25T03:05:16;7.80;;;4.03;;
3081;SDS011;1551;51.046;7.010;2023-04-25T03:08:05;8.20;;;3.58;;
3081;SDS011;1551;51.046;7.010;2023-04-25T03:10:56;8.15;;;4.25;;
3081;SDS011;1551;51.046;7.010;2023-04-25T03:13:47;8.37;;;4.07;;
3081;SDS011;1551;51.046;7.010;2023-04-25T03:16:36;9.10;;;3.88;;
3081;SDS011;1551;51.046;7.010;2023-04-25T03:19:25;9.90;;;4.50;;
3081;SDS011;1551;51.046;7.010;2023-04-25T03:22:15;7.70;;;3.58;;
3081;SDS011;1551;51.046;7.010;2023-04-25T03:25:04;7.25;;;4.13;;
3081;SDS011;1551;51.046;7.010;2023-04-25T03:27:54;6.70;;;3.38;;
3081;SDS011;1551;51.046;7.010;2023-04-25T03:30:44;7.57;;;3.45;;
3081;SDS011;1551;51.046;7.010;2023-04-25T03:33:33;7.90;;;3.97;;
3081;SDS011;1551;51.046;7.010;2023-04-25T03:36:22;8.07;;;3.70;;
3081;SDS011;1551;51.046;7.010;2023-04-25T03:39:11;8.30;;;3.88;;
3081;SDS011;1551;51.046;7.010;2023-04-25T03:42:01;8.13;;;3.53;;
3081;SDS011;1551;51.046;7.010;2023-04-25T03:44:51;7.90;;;3.80;;
3081;SDS011;1551;51.046;7.010;2023-04-25T03:47:41;7.93;;;3.50;;
3081;SDS011;1551;51.046;7.010;2023-04-25T03:50:30;8.73;;;3.60;;
3081;SDS011;1551;51.046;7.010;2023-04-25T03:53:19;10.65;;;4.05;;
3081;SDS011;1551;51.046;7.010;2023-04-25T03:56:28;9.57;;;4.05;;
3081;SDS011;1551;51.046;7.010;2023-04-25T03:59:23;6.10;;;3.80;;
3081;SDS011;1551;51.046;7.010;2023-04-25T04:02:14;7.60;;;3.65;;
3081;SDS011;1551;51.046;7.010;2023-04-25T04:05:04;9.23;;;4.55;;
3081;SDS011;1551;51.046;7.010;2023-04-25T04:07:53;8.57;;;3.80;;
3081;SDS011;1551;51.046;7.010;2023-04-25T04:10:44;9.40;;;4.80;;
3081;SDS011;1551;51.046;7.010;2023-04-25T04:13:34;6.07;;;3.83;;
3081;SDS011;1551;51.046;7.010;2023-04-25T04:16:24;8.07;;;3.50;;
3081;SDS011;1551;51.046;7.010;2023-04-25T04:19:14;10.77;;;4.28;;
3081;SDS011;1551;51.046;7.010;2023-04-25T04:22:09;11.55;;;4.40;;
3081;SDS011;1551;51.046;7.010;2023-04-25T04:24:59;9.63;;;3.90;;
3081;SDS011;1551;51.046;7.010;2023-04-25T04:28:08;8.90;;;3.92;;
3081;SDS011;1551;51.046;7.010;2023-04-25T04:31:16;10.25;;;4.70;;
3081;SDS011;1551;51.046;7.010;2023-04-25T04:34:09;7.57;;;4.20;;
3081;SDS011;1551;51.046;7.010;2023-04-25T04:37:00;11.80;;;6.10;;
3081;SDS011;1551;51.046;7.010;2023-04-25T04:39:49;11.70;;;5.20;;
3081;SDS011;1551;51.046;7.010;2023-04-25T04:42:47;10.93;;;5.17;;
3081;SDS011;1551;51.046;7.010;2023-04-25T04:46:02;8.70;;;4.93;;
3081;SDS011;1551;51.046;7.010;2023-04-25T04:49:04;10.50;;;5.00;;
3081;SDS011;1551;51.046;7.010;2023-04-25T04:52:12;10.45;;;4.50;;
3081;SDS011;1551;51.046;7.010;2023-04-25T04:55:18;10.18;;;5.00;;
3081;SDS011;1551;51.046;7.010;2023-04-25T04:58:19;11.80;;;4.80;;
3081;SDS011;1551;51.046;7.010;2023-04-25T05:01:41;13.52;;;4.40;;
3081;SDS011;1551;51.046;7.010;2023-04-25T05:04:56;11.15;;;5.00;;
3081;SDS011;1551;51.046;7.010;2023-04-25T05:07:48;10.77;;;5.00;;
3081;SDS011;1551;51.046;7.010;2023-04-25T05:10:55;13.40;;;6.70;;
3081;SDS011;1551;51.046;7.010;2023-04-25T05:14:00;9.10;;;3.80;;
3081;SDS011;1551;51.046;7.010;2023-04-25T05:17:08;10.43;;;4.90;;
3081;SDS011;1551;51.046;7.010;2023-04-25T05:20:04;8.73;;;4.13;;
3081;SDS011;1551;51.046;7.010;2023-04-25T05:23:14;12.45;;;4.93;;
3081;SDS011;1551;51.046;7.010;2023-04-25T05:26:33;12.63;;;5.53;;
3081;SDS011;1551;51.046;7.010;2023-04-25T05:29:42;12.40;;;4.17;;
3081;SDS011;1551;51.046;7.010;2023-04-25T05:32:45;10.93;;;5.70;;
3081;SDS011;1551;51.046;7.010;2023-04-25T05:35:35;12.57;;;4.90;;
3081;SDS011;1551;51.046;7.010;2023-04-25T05:38:24;12.23;;;4.63;;
3081;SDS011;1551;51.046;7.010;2023-04-25T05:41:32;13.10;;;5.18;;
3081;SDS011;1551;51.046;7.010;2023-04-25T05:44:44;12.10;;;4.40;;
3081;SDS011;1551;51.046;7.010;2023-04-25T05:47:44;12.63;;;4.50;;
3081;SDS011;1551;51.046;7.010;2023-04-25T05:50:41;14.13;;;5.10;;
3081;SDS011;1551;51.046;7.010;2023-04-25T05:53:46;12.38;;;5.78;;
3081;SDS011;1551;51.046;7.010;2023-04-25T05:56:36;11.90;;;5.22;;
3081;SDS011;1551;51.046;7.010;2023-04-25T05:59:25;13.70;;;5.30;;
3081;SDS011;1551;51.046;7.010;2023-04-25T06:02:15;14.13;;;5.20;;
3081;SDS011;1551;51.046;7.010;2023-04-25T06:05:05;10.73;;;4.70;;
3081;SDS011;1551;51.046;7.010;2023-04-25T06:07:54;15.27;;;4.78;;
3081;SDS011;1551;51.046;7.010;2023-04-25T06:10:43;11.23;;;4.80;;
3081;SDS011;1551;51.046;7.010;2023-04-25T06:13:32;12.27;;;4.20;;
3081;SDS011;1551;51.046;7.010;2023-04-25T06:16:22;12.20;;;4.95;;
3081;SDS011;1551;51.046;7.010;2023-04-25T06:19:11;11.40;;;5.17;;
3081;SDS011;1551;51.046;7.010;2023-04-25T06:22:00;11.55;;;4.40;;
3081;SDS011;1551;51.046;7.010;2023-04-25T06:24:49;13.60;;;5.00;;
3081;SDS011;1551;51.046;7.010;2023-04-25T06:27:39;12.20;;;4.03;;
3081;SDS011;1551;51.046;7.010;2023-04-25T06:30:28;11.85;;;4.07;;
3081;SDS011;1551;51.046;7.010;2023-04-25T06:33:23;12.35;;;4.00;;
3081;SDS011;1551;51.046;7.010;2023-04-25T06:36:14;11.60;;;4.00;;
3081;SDS011;1551;51.046;7.010;2023-04-25T06:39:04;10.30;;;3.88;;
3081;SDS011;1551;51.046;7.010;2023-04-25T06:41:53;11.63;;;4.82;;
3081;SDS011;1551;51.046;7.010;2023-04-25T06:45:03;11.85;;;4.30;;
3081;SDS011;1551;51.046;7.010;2023-04-25T06:47:52;9.23;;;3.70;;
3081;SDS011;1551;51.046;7.010;2023-04-25T06:50:41;11.85;;;4.22;;
3081;SDS011;1551;51.046;7.010;2023-04-25T06:53:31;9.00;;;4.13;;
3081;SDS011;1551;51.046;7.010;2023-04-25T06:56:23;13.07;;;4.53;;
3081;SDS011;1551;51.046;7.010;2023-04-25T06:59:19;12.20;;;4.78;;
3081;SDS011;1551;51.046;7.010;2023-04-25T07:02:09;12.02;;;4.15;;
3081;SDS011;1551;51.046;7.010;2023-04-25T07:04:58;10.95;;;4.63;;
3081;SDS011;1551;51.046;7.010;2023-04-25T07:07:49;8.50;;;4.00;;
3081;SDS011;1551;51.046;7.010;2023-04-25T07:10:38;11.40;;;5.32;;
3081;SDS011;1551;51.046;7.010;2023-04-25T07:13:27;11.38;;;4.20;;
3081;SDS011;1551;51.046;7.010;2023-04-25T07:16:17;8.55;;;3.78;;
3081;SDS011;1551;51.046;7.010;2023-04-25T07:19:08;13.63;;;4.40;;
3081;SDS011;1551;51.046;7.010;2023-04-25T07:21:57;11.82;;;4.90;;
3081;SDS011;1551;51.046;7.010;2023-04-25T07:24:47;9.50;;;4.20;;
3081;SDS011;1551;51.046;7.010;2023-04-25T07:27:38;10.40;;;4.82;;
3081;SDS011;1551;51.046;7.010;2023-04-25T07:30:35;11.38;;;4.95;;
3081;SDS011;1551;51.046;7.010;2023-04-25T07:33:27;14.80;;;5.00;;
3081;SDS011;1551;51.046;7.010;2023-04-25T07:36:15;11.45;;;4.97;;
3081;SDS011;1551;51.046;7.010;2023-04-25T07:39:05;16.33;;;5.00;;
3081;SDS011;1551;51.046;7.010;2023-04-25T07:41:55;13.43;;;5.30;;
3081;SDS011;1551;51.046;7.010;2023-04-25T07:44:50;13.52;;;5.28;;
3081;SDS011;1551;51.046;7.010;2023-04-25T07:47:40;8.32;;;4.78;;
3081;SDS011;1551;51.046;7.010;2023-04-25T07:50:30;10.70;;;4.53;;
3081;SDS011;1551;51.046;7.010;2023-04-25T07:53:19;10.38;;;4.60;;
3081;SDS011;1551;51.046;7.010;2023-04-25T07:56:15;10.32;;;4.72;;
3081;SDS011;1551;51.046;7.010;2023-04-25T07:59:07;7.53;;;3.60;;
3081;SDS011;1551;51.046;7.010;2023-04-25T08:01:56;8.73;;;4.00;;
3081;SDS011;1551;51.046;7.010;2023-04-25T08:04:47;8.50;;;3.90;;
3081;SDS011;1551;51.046;7.010;2023-04-25T08:07:40;9.70;;;3.95;;
3081;SDS011;1551;51.046;7.010;2023-04-25T08:10:30;7.67;;;3.83;;
3081;SDS011;1551;51.046;7.010;2023-04-25T08:13:19;11.30;;;3.40;;
3081;SDS011;1551;51.046;7.010;2023-04-25T08:16:08;6.97;;;3.47;;
3081;SDS011;1551;51.046;7.010;2023-04-25T08:18:58;7.90;;;3.67;;
3081;SDS011;1551;51.046;7.010;2023-04-25T08:21:49;6.25;;;3.92;;
3081;SDS011;1551;51.046;7.010;2023-04-25T08:24:47;8.75;;;3.65;;
3081;SDS011;1551;51.046;7.010;2023-04-25T08:27:36;11.68;;;3.60;;
3081;SDS011;1551;51.046;7.010;2023-04-25T08:30:25;11.55;;;4.18;;
3081;SDS011;1551;51.046;7.010;2023-04-25T08:33:16;10.18;;;4.30;;
3081;SDS011;1551;51.046;7.010;2023-04-25T08:36:19;8.88;;;4.50;;
3081;SDS011;1551;51.046;7.010;2023-04-25T08:39:09;9.93;;;3.97;;
3081;SDS011;1551;51.046;7.010;2023-04-25T08:42:08;9.82;;;4.20;;
3081;SDS011;1551;51.046;7.010;2023-04-25T08:44:59;9.73;;;4.20;;
3081;SDS011;1551;51.046;7.010;2023-04-25T08:47:54;10.60;;;4.53;;
3081;SDS011;1551;51.046;7.010;2023-04-25T08:53:39;8.57;;;4.00;;
3081;SDS011;1551;51.046;7.010;2023-04-25T08:56:31;10.07;;;4.40;;
3081;SDS011;1551;51.046;7.010;2023-04-25T08:59:25;10.03;;;3.70;;
3081;SDS011;1551;51.046;7.010;2023-04-25T09:02:14;8.77;;;4.25;;
3081;SDS011;1551;51.046;7.010;2023-04-25T09:05:05;10.45;;;3.92;;
3081;SDS011;1551;51.046;7.010;2023-04-25T09:07:55;8.70;;;3.65;;
3081;SDS011;1551;51.046;7.010;2023-04-25T09:10:45;5.45;;;3.10;;
3081;SDS011;1551;51.046;7.010;2023-04-25T09:13:35;8.55;;;3.47;;
3081;SDS011;1551;51.046;7.010;2023-04-25T09:20:12;8.85;;;2.90;;
3081;SDS011;1551;51.046;7.010;2023-04-25T09:23:03;7.75;;;2.65;;
3081;SDS011;1551;51.046;7.010;2023-04-25T09:25:56;7.80;;;3.13;;
3081;SDS011;1551;51.046;7.010;2023-04-25T09:28:45;8.18;;;2.67;;
3081;SDS011;1551;51.046;7.010;2023-04-25T09:31:37;7.13;;;2.80;;
3081;SDS011;1551;51.046;7.010;2023-04-25T09:34:28;11.23;;;3.33;;
3081;SDS011;1551;51.046;7.010;2023-04-25T09:37:23;7.43;;;2.70;;
3081;SDS011;1551;51.046;7.010;2023-04-25T09:40:41;7.22;;;2.80;;
3081;SDS011;1551;51.046;7.010;2023-04-25T09:43:37;5.28;;;2.40;;
3081;SDS011;1551;51.046;7.010;2023-04-25T09:46:32;6.10;;;2.40;;
3081;SDS011;1551;51.046;7.010;2023-04-25T09:49:24;6.18;;;2.42;;
3081;SDS011;1551;51.046;7.010;2023-04-25T09:52:27;7.15;;;3.00;;
3081;SDS011;1551;51.046;7.010;2023-04-25T09:55:34;5.00;;;2.00;;
3081;SDS011;1551;51.046;7.010;2023-04-25T09:58:25;8.60;;;2.55;;
3081;SDS011;1551;51.046;7.010;2023-04-25T10:01:17;5.07;;;2.25;;
3081;SDS011;1551;51.046;7.010;2023-04-25T10:04:29;6.25;;;2.67;;
3081;SDS011;1551;51.046;7.010;2023-04-25T10:07:29;5.85;;;2.60;;
3081;SDS011;1551;51.046;7.010;2023-04-25T10:10:19;8.05;;;2.40;;
3081;SDS011;1551;51.046;7.010;2023-04-25T10:13:14;5.97;;;2.03;;
3081;SDS011;1551;51.046;7.010;2023-04-25T10:16:04;6.05;;;2.38;;
3081;SDS011;1551;51.046;7.010;2023-04-25T10:18:53;7.78;;;2.17;;
3081;SDS011;1551;51.046;7.010;2023-04-25T10:21:48;6.63;;;2.10;;
3081;SDS011;1551;51.046;7.010;2023-04-25T10:24:39;6.35;;;1.90;;
3081;SDS011;1551;51.046;7.010;2023-04-25T10:27:30;5.22;;;2.60;;
3081;SDS011;1551;51.046;7.010;2023-04-25T10:30:20;4.80;;;2.33;;
3081;SDS011;1551;51.046;7.010;2023-04-25T10:33:18;6.87;;;2.30;;
3081;SDS011;1551;51.046;7.010;2023-04-25T10:36:21;9.57;;;2.30;;
3081;SDS011;1551;51.046;7.010;2023-04-25T10:39:11;5.78;;;2.20;;
3081;SDS011;1551;51.046;7.010;2023-04-25T10:42:01;6.50;;;3.90;;
3081;SDS011;1551;51.046;7.010;2023-04-25T10:45:01;19.10;;;17.07;;
3081;SDS011;1551;51.046;7.010;2023-04-25T10:47:52;7.60;;;3.33;;
3081;SDS011;1551;51.046;7.010;2023-04-25T10:50:41;5.75;;;2.35;;
3081;SDS011;1551;51.046;7.010;2023-04-25T10:53:32;6.13;;;2.33;;
3081;SDS011;1551;51.046;7.010;2023-04-25T10:56:26;6.63;;;2.20;;
3081;SDS011;1551;51.046;7.010;2023-04-25T10:59:19;6.07;;;1.90;;
3081;SDS011;1551;51.046;7.010;2023-04-25T11:02:13;6.60;;;1.90;;
3081;SDS011;1551;51.046;7.010;2023-04-25T11:05:02;5.18;;;1.92;;
3081;SDS011;1551;51.046;7.010;2023-04-25T11:07:52;4.75;;;1.50;;
3081;SDS011;1551;51.046;7.010;2023-04-25T11:10:45;5.67;;;1.90;;
3081;SDS011;1551;51.046;7.010;2023-04-25T11:13:34;4.15;;;1.80;;
3081;SDS011;1551;51.046;7.010;2023-04-25T11:16:26;7.45;;;2.20;;
3081;SDS011;1551;51.046;7.010;2023-04-25T11:19:15;5.20;;;2.07;;
3081;SDS011;1551;51.046;7.010;2023-04-25T11:22:04;7.57;;;2.10;;
3081;SDS011;1551;51.046;7.010;2023-04-25T11:24:53;6.30;;;2.10;;
3081;SDS011;1551;51.046;7.010;2023-04-25T11:27:55;6.03;;;2.60;;
3081;SDS011;1551;51.046;7.010;2023-04-25T11:30:49;4.20;;;2.00;;
3081;SDS011;1551;51.046;7.010;2023-04-25T11:33:41;5.10;;;1.80;;
3081;SDS011;1551;51.046;7.010;2023-04-25T11:36:30;4.15;;;1.58;;
3081;SDS011;1551;51.046;7.010;2023-04-25T11:39:20;4.65;;;1.90;;
3081;SDS011;1551;51.046;7.010;2023-04-25T11:42:09;4.00;;;1.40;;
3081;SDS011;1551;51.046;7.010;2023-04-25T11:44:58;3.40;;;1.30;;
3081;SDS011;1551;51.046;7.010;2023-04-25T11:47:48;5.40;;;1.80;;
3081;SDS011;1551;51.046;7.010;2023-04-25T11:50:38;5.63;;;1.50;;
3081;SDS011;1551;51.046;7.010;2023-04-25T11:53:28;3.75;;;1.40;;
3081;SDS011;1551;51.046;7.010;2023-04-25T11:56:17;2.88;;;1.50;;
3081;SDS011;1551;51.046;7.010;2023-04-25T11:59:06;3.90;;;1.50;;
3081;SDS011;1551;51.046;7.010;2023-04-25T12:01:55;5.55;;;1.80;;
3081;SDS011;1551;51.046;7.010;2023-04-25T12:04:46;4.50;;;1.90;;
3081;SDS011;1551;51.046;7.010;2023-04-25T12:07:35;13.52;;;8.20;;
3081;SDS011;1551;51.046;7.010;2023-04-25T12:10:25;11.18;;;6.38;;
3081;SDS011;1551;51.046;7.010;2023-04-25T12:13:24;3.30;;;1.70;;
3081;SDS011;1551;51.046;7.010;2023-04-25T12:16:16;4.20;;;1.35;;
3081;SDS011;1551;51.046;7.010;2023-04-25T12:19:05;4.70;;;1.95;;
3081;SDS011;1551;51.046;7.010;2023-04-25T12:21:54;5.10;;;1.88;;
3081;SDS011;1551;51.046;7.010;2023-04-25T12:24:44;4.25;;;1.60;;
3081;SDS011;1551;51.046;7.010;2023-04-25T12:27:33;5.18;;;1.70;;
3081;SDS011;1551;51.046;7.010;2023-04-25T12:30:22;5.45;;;1.80;;
3081;SDS011;1551;51.046;7.010;2023-04-25T12:33:11;3.47;;;1.60;;
3081;SDS011;1551;51.046;7.010;2023-04-25T12:36:00;6.18;;;2.33;;
3081;SDS011;1551;51.046;7.010;2023-04-25T12:38:56;4.60;;;1.90;;
3081;SDS011;1551;51.046;7.010;2023-04-25T12:41:45;3.50;;;1.85;;
3081;SDS011;1551;51.046;7.010;2023-04-25T12:44:35;6.00;;;1.77;;
3081;SDS011;1551;51.046;7.010;2023-04-25T12:47:24;4.97;;;2.25;;
3081;SDS011;1551;51.046;7.010;2023-04-25T12:50:13;4.63;;;1.90;;
3081;SDS011;1551;51.046;7.010;2023-04-25T12:53:02;5.30;;;1.85;;
3081;SDS011;1551;51.046;7.010;2023-04-25T12:55:51;5.72;;;2.20;;
3081;SDS011;1551;51.046;7.010;2023-04-25T12:58:40;5.05;;;1.70;;
3081;SDS011;1551;51.046;7.010;2023-04-25T13:01:29;4.90;;;1.88;;
3081;SDS011;1551;51.046;7.010;2023-04-25T13:04:18;6.30;;;1.83;;
3081;SDS011;1551;51.046;7.010;2023-04-25T13:07:09;3.90;;;2.00;;
3081;SDS011;1551;51.046;7.010;2023-04-25T13:09:58;4.05;;;2.00;;
3081;SDS011;1551;51.046;7.010;2023-04-25T13:12:47;3.80;;;1.60;;
3081;SDS011;1551;51.046;7.010;2023-04-25T13:15:36;4.30;;;1.80;;
3081;SDS011;1551;51.046;7.010;2023-04-25T13:18:26;4.75;;;1.85;;
3081;SDS011;1551;51.046;7.010;2023-04-25T13:21:15;7.37;;;2.60;;
3081;SDS011;1551;51.046;7.010;2023-04-25T13:24:04;5.78;;;2.05;;
3081;SDS011;1551;51.046;7.010;2023-04-25T13:26:53;5.68;;;2.30;;
3081;SDS011;1551;51.046;7.010;2023-04-25T13:29:42;3.67;;;2.10;;
3081;SDS011;1551;51.046;7.010;2023-04-25T13:32:31;7.88;;;2.65;;
3081;SDS011;1551;51.046;7.010;2023-04-25T13:35:20;6.90;;;2.40;;
3081;SDS011;1551;51.046;7.010;2023-04-25T13:38:09;8.93;;;2.83;;
3081;SDS011;1551;51.046;7.010;2023-04-25T13:40:59;5.72;;;3.00;;
3081;SDS011;1551;51.046;7.010;2023-04-25T13:43:48;4.57;;;2.50;;
3081;SDS011;1551;51.046;7.010;2023-04-25T13:46:37;5.78;;;2.55;;
3081;SDS011;1551;51.046;7.010;2023-04-25T13:49:26;8.00;;;2.58;;
3081;SDS011;1551;51.046;7.010;2023-04-25T13:52:15;6.87;;;2.60;;
3081;SDS011;1551;51.046;7.010;2023-04-25T13:55:05;5.18;;;2.60;;
3081;SDS011;1551;51.046;7.010;2023-04-25T13:57:55;6.35;;;2.58;;
3081;SDS011;1551;51.046;7.010;2023-04-25T14:00:44;6.47;;;2.83;;
3081;SDS011;1551;51.046;7.010;2023-04-25T14:03:35;5.90;;;2.60;;
3081;SDS011;1551;51.046;7.010;2023-04-25T14:06:24;5.85;;;2.35;;
3081;SDS011;1551;51.046;7.010;2023-04-25T14:09:14;4.80;;;2.22;;
3081;SDS011;1551;51.046;7.010;2023-04-25T14:12:04;5.68;;;2.30;;
3081;SDS011;1551;51.046;7.010;2023-04-25T14:14:53;5.37;;;2.17;;
3081;SDS011;1551;51.046;7.010;2023-04-25T14:17:42;5.90;;;2.08;;
3081;SDS011;1551;51.046;7.010;2023-04-25T14:20:31;7.10;;;2.50;;
3081;SDS011;1551;51.046;7.010;2023-04-25T14:23:20;4.57;;;2.20;;
3081;SDS011;1551;51.046;7.010;2023-04-25T14:26:09;6.13;;;2.40;;
3081;SDS011;1551;51.046;7.010;2023-04-25T14:29:01;4.00;;;1.75;;
3081;SDS011;1551;51.046;7.010;2023-04-25T14:31:50;4.60;;;1.70;;
3081;SDS011;1551;51.046;7.010;2023-04-25T14:34:38;5.68;;;1.98;;
3081;SDS011;1551;51.046;7.010;2023-04-25T14:37:28;4.78;;;1.40;;
3081;SDS011;1551;51.046;7.010;2023-04-25T14:40:17;2.95;;;1.40;;
3081;SDS011;1551;51.046;7.010;2023-04-25T14:43:06;5.10;;;1.60;;
3081;SDS011;1551;51.046;7.010;2023-04-25T14:45:55;3.40;;;1.40;;
3081;SDS011;1551;51.046;7.010;2023-04-25T14:48:44;3.20;;;1.30;;
3081;SDS011;1551;51.046;7.010;2023-04-25T14:51:34;3.00;;;1.50;;
3081;SDS011;1551;51.046;7.010;2023-04-25T14:54:23;3.70;;;1.40;;
3081;SDS011;1551;51.046;7.010;2023-04-25T14:57:12;4.22;;;1.42;;
3081;SDS011;1551;51.046;7.010;2023-04-25T15:00:01;6.47;;;1.70;;
3081;SDS011;1551;51.046;7.010;2023-04-25T15:02:53;3.03;;;1.30;;
3081;SDS011;1551;51.046;7.010;2023-04-25T15:05:42;4.82;;;1.58;;
3081;SDS011;1551;51.046;7.010;2023-04-25T15:08:31;5.30;;;2.00;;
3081;SDS011;1551;51.046;7.010;2023-04-25T15:11:21;5.32;;;1.90;;
3081;SDS011;1551;51.046;7.010;2023-04-25T15:14:10;4.20;;;2.05;;
3081;SDS011;1551;51.046;7.010;2023-04-25T15:16:59;6.57;;;2.15;;
3081;SDS011;1551;51.046;7.010;2023-04-25T15:19:48;3.40;;;1.60;;
3081;SDS011;1551;51.046;7.010;2023-04-25T15:22:38;4.13;;;1.80;;
3081;SDS011;1551;51.046;7.010;2023-04-25T15:25:28;3.70;;;1.60;;
3081;SDS011;1551;51.046;7.010;2023-04-25T15:28:17;4.75;;;1.90;;
3081;SDS011;1551;51.046;7.010;2023-04-25T15:31:07;6.20;;;2.08;;
3081;SDS011;1551;51.046;7.010;2023-04-25T15:33:56;4.90;;;2.10;;
3081;SDS011;1551;51.046;7.010;2023-04-25T15:36:45;10.38;;;5.60;;
3081;SDS011;1551;51.046;7.010;2023-04-25T15:39:34;6.07;;;2.90;;
3081;SDS011;1551;51.046;7.010;2023-04-25T15:42:23;5.35;;;2.08;;
3081;SDS011;1551;51.046;7.010;2023-04-25T15:45:12;5.30;;;2.38;;
3081;SDS011;1551;51.046;7.010;2023-04-25T15:48:02;5.28;;;2.20;;
3081;SDS011;1551;51.046;7.010;2023-04-25T15:50:52;4.28;;;1.60;;
3081;SDS011;1551;51.046;7.010;2023-04-25T15:53:41;4.78;;;1.75;;
3081;SDS011;1551;51.046;7.010;2023-04-25T15:56:29;5.20;;;1.80;;
3081;SDS011;1551;51.046;7.010;2023-04-25T15:59:19;4.93;;;2.40;;
3081;SDS011;1551;51.046;7.010;2023-04-25T16:02:08;4.78;;;1.80;;
3081;SDS011;1551;51.046;7.010;2023-04-25T16:04:57;7.00;;;2.70;;
3081;SDS011;1551;51.046;7.010;2023-04-25T16:07:46;6.13;;;2.17;;
3081;SDS011;1551;51.046;7.010;2023-04-25T16:10:36;5.65;;;1.70;;
3081;SDS011;1551;51.046;7.010;2023-04-25T16:13:26;5.78;;;2.20;;
3081;SDS011;1551;51.046;7.010;2023-04-25T16:16:15;5.07;;;1.90;;
3081;SDS011;1551;51.046;7.010;2023-04-25T16:19:04;5.60;;;1.80;;
3081;SDS011;1551;51.046;7.010;2023-04-25T16:21:53;4.82;;;2.10;;
3081;SDS011;1551;51.046;7.010;2023-04-25T16:24:42;5.20;;;1.80;;
3081;SDS011;1551;51.046;7.010;2023-04-25T16:27:31;3.00;;;1.50;;
3081;SDS011;1551;51.046;7.010;2023-04-25T16:30:22;5.10;;;2.45;;
3081;SDS011;1551;51.046;7.010;2023-04-25T16:33:11;4.18;;;1.90;;
3081;SDS011;1551;51.046;7.010;2023-04-25T16:36:00;3.60;;;2.10;;
3081;SDS011;1551;51.046;7.010;2023-04-25T16:38:49;5.93;;;2.22;;
3081;SDS011;1551;51.046;7.010;2023-04-25T16:41:38;5.00;;;2.00;;
3081;SDS011;1551;51.046;7.010;2023-04-25T16:44:26;5.93;;;1.90;;
3081;SDS011;1551;51.046;7.010;2023-04-25T16:47:15;5.88;;;1.60;;
3081;SDS011;1551;51.046;7.010;2023-04-25T16:50:04;5.70;;;1.80;;
3081;SDS011;1551;51.046;7.010;2023-04-25T16:52:54;3.88;;;1.58;;
3081;SDS011;1551;51.046;7.010;2023-04-25T16:55:43;4.28;;;1.30;;
3081;SDS011;1551;51.046;7.010;2023-04-25T16:58:32;4.05;;;1.55;;
3081;SDS011;1551;51.046;7.010;2023-04-25T17:01:22;4.50;;;1.80;;
3081;SDS011;1551;51.046;7.010;2023-04-25T17:04:11;5.38;;;1.77;;
3081;SDS011;1551;51.046;7.010;2023-04-25T17:07:00;3.83;;;1.35;;
3081;SDS011;1551;51.046;7.010;2023-04-25T17:09:49;7.20;;;1.80;;
3081;SDS011;1551;51.046;7.010;2023-04-25T17:12:38;4.13;;;1.40;;
3081;SDS011;1551;51.046;7.010;2023-04-25T17:15:27;4.68;;;1.52;;
3081;SDS011;1551;51.046;7.010;2023-04-25T17:18:16;3.70;;;1.20;;
3081;SDS011;1551;51.046;7.010;2023-04-25T17:21:05;3.42;;;1.20;;
3081;SDS011;1551;51.046;7.010;2023-04-25T17:23:54;4.65;;;1.60;;
3081;SDS011;1551;51.046;7.010;2023-04-25T17:26:45;5.05;;;2.00;;
3081;SDS011;1551;51.046;7.010;2023-04-25T17:29:34;4.05;;;1.88;;
3081;SDS011;1551;51.046;7.010;2023-04-25T17:32:23;4.80;;;2.10;;
3081;SDS011;1551;51.046;7.010;2023-04-25T17:35:11;4.70;;;1.92;;
3081;SDS011;1551;51.046;7.010;2023-04-25T17:38:01;4.75;;;1.90;;
3081;SDS011;1551;51.046;7.010;2023-04-25T17:40:50;30.17;;;17.20;;
3081;SDS011;1551;51.046;7.010;2023-04-25T17:43:39;4.75;;;1.90;;
3081;SDS011;1551;51.046;7.010;2023-04-25T17:46:29;3.80;;;1.60;;